Time;durP1;ratioP1;P1;durP2;ratioP2;P2;SDS_P1;SDS_P2;PMS_P1;PMS_P2;Temp;Humidity;BMP_temperature;BMP_pressure;BME280_temperature;BME280_humidity;BME280_pressure;Samples;Min_cycle;Max_cycle;Signal;HPM_P1;HPM_P2
2020/12/31 00:02:06;;;;;;;25.52;10.95;;;3.30;99.90;;;;;;5013704;28;20076;-55
2020/12/31 00:04:32;;;;;;;27.85;13.43;;;3.30;99.90;;;;;;4317717;28;10000751;-47
2020/12/31 00:06:57;;;;;;;25.25;12.43;;;3.40;99.90;;;;;;5008837;28;20030;-49
2020/12/31 00:09:24;;;;;;;28.65;13.27;;;3.40;99.90;;;;;;4990057;28;20060;-54
2020/12/31 00:11:50;;;;;;;25.10;11.23;;;3.40;99.90;;;;;;5009255;28;20053;-49
2020/12/31 00:14:16;;;;;;;26.27;12.38;;;3.40;99.90;;;;;;5006169;28;20477;-48
2020/12/31 00:16:41;;;;;;;24.83;11.82;;;3.40;99.90;;;;;;5006380;28;20034;-50
2020/12/31 00:19:07;;;;;;;26.52;13.13;;;3.40;99.90;;;;;;5007117;28;20037;-53
2020/12/31 00:21:32;;;;;;;27.05;12.30;;;3.40;99.90;;;;;;5008133;28;20664;-49
2020/12/31 00:23:58;;;;;;;26.45;12.13;;;3.40;99.90;;;;;;5008069;28;20068;-52
2020/12/31 00:26:24;;;;;;;28.40;13.35;;;3.40;99.90;;;;;;5008439;28;20034;-50
2020/12/31 00:28:49;;;;;;;28.17;11.38;;;3.50;99.90;;;;;;5007267;28;20049;-57
2020/12/31 00:31:15;;;;;;;25.52;11.52;;;3.50;99.90;;;;;;5008534;28;20740;-52
2020/12/31 00:33:41;;;;;;;27.40;11.38;;;3.50;99.90;;;;;;4989666;28;20094;-52
2020/12/31 00:36:06;;;;;;;25.42;12.25;;;3.60;99.90;;;;;;4989980;28;20030;-53
2020/12/31 00:38:32;;;;;;;23.38;10.77;;;3.60;99.90;;;;;;4989133;28;20481;-53
2020/12/31 00:40:59;;;;;;;26.77;11.32;;;3.70;99.90;;;;;;4988832;28;20038;-52
2020/12/31 00:43:25;;;;;;;24.35;10.20;;;3.80;99.90;;;;;;4990517;28;20025;-51
2020/12/31 00:45:51;;;;;;;27.05;11.32;;;3.80;99.90;;;;;;5007901;28;20338;-56
2020/12/31 00:48:17;;;;;;;21.85;10.38;;;3.80;99.90;;;;;;5011314;28;20378;-58
2020/12/31 00:50:43;;;;;;;23.50;9.55;;;3.70;99.90;;;;;;5012164;28;20029;-53
2020/12/31 00:53:08;;;;;;;23.77;9.95;;;3.70;99.90;;;;;;5011511;28;20028;-54
2020/12/31 00:55:34;;;;;;;29.23;10.80;;;3.70;99.90;;;;;;5012583;28;20029;-55
2020/12/31 00:57:59;;;;;;;22.65;8.75;;;3.70;99.90;;;;;;5011308;28;20518;-54
2020/12/31 01:00:25;;;;;;;23.40;9.90;;;3.80;99.90;;;;;;5011972;28;20049;-52
2020/12/31 01:02:51;;;;;;;22.70;9.10;;;3.80;99.90;;;;;;5012471;28;20022;-57
2020/12/31 01:05:17;;;;;;;24.63;9.55;;;3.80;99.90;;;;;;5012605;28;20030;-53
2020/12/31 01:07:43;;;;;;;23.65;9.10;;;3.90;99.90;;;;;;5011108;28;20052;-53
2020/12/31 01:10:09;;;;;;;21.85;8.23;;;3.80;99.90;;;;;;5012023;28;20121;-55
2020/12/31 01:12:35;;;;;;;21.95;9.50;;;3.80;99.90;;;;;;5012663;28;20451;-52
2020/12/31 01:15:01;;;;;;;25.35;10.07;;;3.80;99.90;;;;;;5011448;28;20030;-54
2020/12/31 01:17:27;;;;;;;20.73;8.30;;;3.80;99.90;;;;;;5010681;28;20129;-56
2020/12/31 01:19:53;;;;;;;21.83;8.80;;;3.80;99.90;;;;;;5010314;28;20046;-55
2020/12/31 01:22:19;;;;;;;30.33;9.07;;;3.80;99.90;;;;;;5010604;28;20121;-53
2020/12/31 01:24:45;;;;;;;25.55;9.15;;;3.80;99.90;;;;;;5011075;28;20168;-57
2020/12/31 01:27:12;;;;;;;21.65;8.90;;;3.80;99.90;;;;;;5012060;28;20076;-57
2020/12/31 01:29:38;;;;;;;19.65;6.95;;;3.80;99.90;;;;;;5010310;28;20117;-53
2020/12/31 01:32:04;;;;;;;23.33;9.75;;;3.80;99.90;;;;;;5012057;28;20145;-52
2020/12/31 01:34:30;;;;;;;20.00;7.60;;;3.80;99.90;;;;;;5010950;28;20509;-57
2020/12/31 01:36:56;;;;;;;22.38;8.48;;;3.80;99.90;;;;;;5010892;28;20566;-52
2020/12/31 01:39:22;;;;;;;21.85;9.00;;;3.80;99.90;;;;;;5011401;28;20026;-58
2020/12/31 01:41:49;;;;;;;20.50;8.05;;;3.80;99.90;;;;;;5010426;28;20037;-53
2020/12/31 01:44:15;;;;;;;20.40;8.50;;;3.80;99.90;;;;;;5012035;28;20033;-51
2020/12/31 01:46:45;;;;;;;21.48;8.73;;;3.80;99.90;;;;;;5011973;28;20474;-55
2020/12/31 01:49:17;;;;;;;19.27;8.32;;;3.80;99.90;;;;;;5011321;28;20534;-56
2020/12/31 01:51:46;;;;;;;20.25;7.88;;;3.80;99.90;;;;;;5010722;28;20045;-51
2020/12/31 01:54:15;;;;;;;22.25;8.52;;;3.80;99.90;;;;;;5010260;28;20048;-55
2020/12/31 01:56:42;;;;;;;21.77;8.32;;;3.70;99.90;;;;;;5010680;28;20026;-54
2020/12/31 01:59:08;;;;;;;20.65;7.75;;;3.70;99.90;;;;;;5013365;28;20080;-57
2020/12/31 02:01:34;;;;;;;18.48;8.20;;;3.70;99.90;;;;;;5018096;28;20079;-55
2020/12/31 02:03:59;;;;;;;21.05;8.63;;;3.80;99.90;;;;;;5016590;28;20452;-52
2020/12/31 02:06:27;;;;;;;21.20;8.38;;;3.70;99.90;;;;;;5018251;28;20030;-55
2020/12/31 02:08:54;;;;;;;21.23;8.57;;;3.80;99.90;;;;;;5017851;28;20374;-56
2020/12/31 02:11:22;;;;;;;21.13;8.00;;;3.80;99.90;;;;;;5017111;28;20056;-56
2020/12/31 02:13:48;;;;;;;20.27;8.38;;;3.80;99.90;;;;;;5018417;28;20099;-57
2020/12/31 02:16:16;;;;;;;20.67;8.20;;;3.90;99.90;;;;;;5018392;28;20397;-56
2020/12/31 02:18:58;;;;;;;20.55;7.68;;;3.80;99.90;;;;;;5017631;28;20029;-53
2020/12/31 02:21:32;;;;;;;19.58;8.25;;;3.90;99.90;;;;;;5016942;28;20041;-55
2020/12/31 02:24:02;;;;;;;20.65;8.05;;;3.80;99.90;;;;;;5017676;28;20109;-56
2020/12/31 02:26:29;;;;;;;22.10;9.68;;;3.80;99.90;;;;;;5008913;28;20078;-53
2020/12/31 02:28:56;;;;;;;20.95;7.90;;;3.80;99.90;;;;;;4996786;28;20023;-54
2020/12/31 02:31:23;;;;;;;20.52;8.55;;;3.80;99.90;;;;;;5016950;28;20036;-54
2020/12/31 02:33:54;;;;;;;21.83;8.38;;;3.80;99.90;;;;;;5018032;28;20548;-57
2020/12/31 02:36:22;;;;;;;20.90;8.65;;;3.80;99.90;;;;;;5016831;28;20034;-54
2020/12/31 02:38:47;;;;;;;24.13;7.70;;;3.90;99.90;;;;;;5016164;28;20507;-54
2020/12/31 02:41:14;;;;;;;19.90;8.15;;;3.80;99.90;;;;;;5016484;28;20077;-53
2020/12/31 02:43:40;;;;;;;20.42;7.50;;;3.80;99.90;;;;;;5016627;28;20112;-54
2020/12/31 02:46:09;;;;;;;20.38;8.05;;;3.80;99.90;;;;;;5016514;28;20033;-55
2020/12/31 02:48:34;;;;;;;19.67;7.78;;;3.80;99.90;;;;;;5016188;28;20032;-56
2020/12/31 02:51:00;;;;;;;19.63;8.57;;;3.70;99.90;;;;;;5017736;28;20026;-53
2020/12/31 02:53:26;;;;;;;21.85;8.65;;;3.80;99.90;;;;;;5016545;28;20026;-57
2020/12/31 02:55:51;;;;;;;20.50;9.25;;;3.70;99.90;;;;;;5015323;28;20026;-53
2020/12/31 02:58:17;;;;;;;21.30;9.40;;;3.70;99.90;;;;;;5016325;28;20102;-57
2020/12/31 03:00:43;;;;;;;20.70;8.25;;;3.70;99.90;;;;;;5016462;28;20125;-56
2020/12/31 03:03:09;;;;;;;21.17;8.32;;;3.70;99.90;;;;;;5018275;28;20026;-51
2020/12/31 03:05:35;;;;;;;19.70;8.57;;;3.60;99.90;;;;;;5016189;28;20034;-53
2020/12/31 03:08:00;;;;;;;22.45;9.48;;;3.50;99.90;;;;;;5017414;28;20033;-54
2020/12/31 03:10:26;;;;;;;20.88;8.93;;;3.50;99.90;;;;;;5002707;28;20508;-53
2020/12/31 03:12:52;;;;;;;19.83;7.90;;;3.50;99.90;;;;;;5014813;28;20062;-55
2020/12/31 03:15:21;;;;;;;20.50;8.73;;;3.50;99.90;;;;;;5013326;28;20397;-57
2020/12/31 03:17:47;;;;;;;22.75;9.57;;;3.60;99.90;;;;;;5014442;28;20037;-52
2020/12/31 03:20:12;;;;;;;22.65;10.05;;;3.50;99.90;;;;;;5013960;28;20482;-53
2020/12/31 03:22:38;;;;;;;23.33;9.02;;;3.40;99.90;;;;;;5013260;28;20037;-54
2020/12/31 03:25:04;;;;;;;22.50;9.52;;;3.50;99.90;;;;;;5014101;28;20044;-55
2020/12/31 03:27:30;;;;;;;20.67;8.15;;;3.40;99.90;;;;;;5014214;28;20025;-55
2020/12/31 03:29:56;;;;;;;21.30;8.18;;;3.40;99.90;;;;;;5013691;28;20026;-57
2020/12/31 03:32:22;;;;;;;20.88;8.60;;;3.40;99.90;;;;;;5014488;28;20563;-57
2020/12/31 03:34:48;;;;;;;20.30;8.55;;;3.40;99.90;;;;;;5010084;28;20019;-56
2020/12/31 03:37:13;;;;;;;20.67;7.68;;;3.50;99.90;;;;;;5014364;28;20092;-56
2020/12/31 03:39:40;;;;;;;20.73;8.93;;;3.50;99.90;;;;;;5013320;28;20026;-51
2020/12/31 03:42:06;;;;;;;21.20;8.05;;;3.50;99.90;;;;;;5014240;28;20121;-57
2020/12/31 03:44:31;;;;;;;23.25;9.38;;;3.50;99.90;;;;;;5012769;28;20210;-54
2020/12/31 03:46:57;;;;;;;21.55;8.13;;;3.40;99.90;;;;;;5013406;28;20125;-53
2020/12/31 03:49:23;;;;;;;21.67;7.80;;;3.50;99.90;;;;;;5011140;28;20079;-53
2020/12/31 03:51:49;;;;;;;21.05;7.95;;;3.50;99.90;;;;;;5013760;28;20054;-53
2020/12/31 03:54:14;;;;;;;19.90;7.63;;;3.40;99.90;;;;;;5014080;28;20022;-54
2020/12/31 03:56:40;;;;;;;23.35;9.25;;;3.50;99.90;;;;;;5013978;28;20543;-55
2020/12/31 03:59:06;;;;;;;20.63;8.45;;;3.50;99.90;;;;;;5011687;28;20129;-54
2020/12/31 04:01:33;;;;;;;21.55;8.63;;;3.50;99.90;;;;;;5013703;28;20050;-59
2020/12/31 04:04:00;;;;;;;19.77;8.68;;;3.50;99.90;;;;;;5013773;28;20406;-53
2020/12/31 04:06:26;;;;;;;21.23;8.75;;;3.50;99.90;;;;;;5013226;28;20042;-55
2020/12/31 04:08:52;;;;;;;21.48;8.40;;;3.50;99.90;;;;;;5012981;28;20053;-57
2020/12/31 04:11:18;;;;;;;22.48;9.60;;;3.50;99.90;;;;;;5012183;28;20048;-54
2020/12/31 04:13:44;;;;;;;20.35;8.15;;;3.50;99.90;;;;;;5013441;28;20068;-57
2020/12/31 04:16:10;;;;;;;21.45;8.68;;;3.50;99.90;;;;;;5012344;28;20499;-51
2020/12/31 04:18:36;;;;;;;20.42;8.27;;;3.60;99.90;;;;;;5012866;28;20064;-52
2020/12/31 04:21:01;;;;;;;20.17;7.65;;;3.60;99.90;;;;;;5012199;28;20057;-53
2020/12/31 04:23:27;;;;;;;19.05;7.82;;;3.50;99.90;;;;;;5012474;28;20026;-55
2020/12/31 04:25:52;;;;;;;23.63;8.65;;;3.60;99.90;;;;;;5012247;28;20026;-53
2020/12/31 04:28:18;;;;;;;20.58;8.70;;;3.60;99.90;;;;;;5011451;28;20030;-51
2020/12/31 04:30:48;;;;;;;20.05;8.45;;;3.50;99.90;;;;;;5013047;28;20033;-57
2020/12/31 04:33:15;;;;;;;20.33;8.40;;;3.50;99.90;;;;;;5012101;28;20057;-54
2020/12/31 04:35:41;;;;;;;19.52;6.85;;;3.60;99.90;;;;;;5013212;28;20029;-53
2020/12/31 04:38:07;;;;;;;20.58;7.47;;;3.70;99.90;;;;;;5012568;28;20401;-53
2020/12/31 04:40:33;;;;;;;19.70;7.72;;;3.70;99.90;;;;;;5012679;28;20088;-54
2020/12/31 04:42:59;;;;;;;20.17;7.97;;;3.80;99.90;;;;;;5011992;28;20033;-56
2020/12/31 04:45:26;;;;;;;21.58;8.60;;;3.70;99.90;;;;;;5011764;28;20618;-55
2020/12/31 04:48:27;;;;;;;18.73;7.50;;;3.70;99.90;;;;;;5011363;28;20060;-51
2020/12/31 04:50:56;;;;;;;19.40;8.05;;;3.70;99.90;;;;;;5016224;28;20038;-52
2020/12/31 04:53:23;;;;;;;19.50;7.65;;;3.80;99.90;;;;;;5011659;28;20038;-57
2020/12/31 04:55:48;;;;;;;23.02;7.72;;;3.80;99.90;;;;;;5012714;28;20018;-53
2020/12/31 04:58:15;;;;;;;20.75;8.95;;;3.80;99.90;;;;;;5011138;28;20366;-53
2020/12/31 05:00:42;;;;;;;19.60;8.30;;;3.80;99.90;;;;;;5012387;28;20528;-56
2020/12/31 05:03:09;;;;;;;19.08;7.32;;;3.80;99.90;;;;;;5012782;28;20041;-54
2020/12/31 05:05:36;;;;;;;20.73;8.27;;;3.70;99.90;;;;;;5011433;28;20064;-53
2020/12/31 05:08:05;;;;;;;19.53;8.23;;;3.70;99.90;;;;;;5011974;28;20071;-53
2020/12/31 05:10:31;;;;;;;21.10;8.45;;;3.70;99.90;;;;;;5011654;28;20093;-56
2020/12/31 05:13:05;;;;;;;19.58;7.85;;;3.70;99.90;;;;;;5011307;28;20026;-57
2020/12/31 05:15:41;;;;;;;21.40;8.10;;;3.70;99.90;;;;;;5012748;28;20049;-51
2020/12/31 05:18:18;;;;;;;20.80;8.80;;;3.60;99.90;;;;;;5011052;28;20561;-54
2020/12/31 05:20:46;;;;;;;19.58;8.57;;;3.60;99.90;;;;;;5012293;28;20104;-57
2020/12/31 05:23:13;;;;;;;19.65;7.50;;;3.60;99.90;;;;;;5011450;28;20109;-53
2020/12/31 05:25:39;;;;;;;19.27;8.20;;;3.60;99.90;;;;;;5012805;28;20537;-53
2020/12/31 05:28:31;;;;;;;21.85;8.77;;;3.60;99.90;;;;;;5012307;28;20056;-56
2020/12/31 05:31:00;;;;;;;20.75;7.93;;;3.50;99.90;;;;;;4992877;28;20022;-55
2020/12/31 05:33:27;;;;;;;22.30;8.35;;;3.50;99.90;;;;;;4992311;28;20030;-54
2020/12/31 05:36:16;;;;;;;19.63;6.68;;;3.50;99.90;;;;;;4992490;28;20041;-53
2020/12/31 05:38:46;;;;;;;21.00;8.35;;;3.50;99.90;;;;;;4996906;28;20101;-51
2020/12/31 05:41:12;;;;;;;21.58;7.72;;;3.50;99.90;;;;;;5011737;28;20030;-52
2020/12/31 05:43:40;;;;;;;18.85;7.63;;;3.50;99.90;;;;;;5012045;28;20068;-51
2020/12/31 05:46:11;;;;;;;21.92;8.68;;;3.40;99.90;;;;;;5010677;28;20052;-51
2020/12/31 05:48:38;;;;;;;20.80;8.07;;;3.40;99.90;;;;;;5011233;28;20837;-53
2020/12/31 05:51:28;;;;;;;18.65;7.32;;;3.40;99.90;;;;;;5010520;28;20504;-52
2020/12/31 05:54:04;;;;;;;21.73;9.23;;;3.40;99.90;;;;;;5011851;28;20026;-54
2020/12/31 05:56:31;;;;;;;19.52;8.02;;;3.40;99.90;;;;;;5012037;28;20024;-53
2020/12/31 05:59:08;;;;;;;18.98;7.57;;;3.40;99.90;;;;;;5011320;28;20114;-57
2020/12/31 06:01:38;;;;;;;21.50;8.52;;;3.40;99.90;;;;;;5010326;28;20061;-54
2020/12/31 06:04:19;;;;;;;19.98;8.45;;;3.40;99.90;;;;;;5010435;28;20029;-53
2020/12/31 06:06:50;;;;;;;20.55;7.80;;;3.40;99.90;;;;;;5011834;28;20033;-54
2020/12/31 06:09:36;;;;;;;20.77;8.07;;;3.40;99.90;;;;;;5008462;28;20068;-57
2020/12/31 06:12:08;;;;;;;20.52;7.65;;;3.40;99.90;;;;;;5011486;28;20041;-57
2020/12/31 06:14:35;;;;;;;20.02;7.93;;;3.40;99.90;;;;;;5011509;28;20101;-52
2020/12/31 06:17:05;;;;;;;22.85;8.63;;;3.40;99.90;;;;;;5011636;28;20087;-57
2020/12/31 06:19:39;;;;;;;20.75;8.27;;;3.40;99.90;;;;;;5010514;28;20082;-56
2020/12/31 06:22:06;;;;;;;22.15;8.30;;;3.40;99.90;;;;;;5010570;28;20531;-56
2020/12/31 06:24:42;;;;;;;21.83;8.95;;;3.30;99.90;;;;;;5010304;28;20490;-53
2020/12/31 06:27:09;;;;;;;19.90;7.93;;;3.30;99.90;;;;;;5011668;28;20022;-56
2020/12/31 06:29:42;;;;;;;20.05;8.50;;;3.30;99.90;;;;;;5010945;28;20440;-54
2020/12/31 06:32:30;;;;;;;20.73;7.55;;;3.30;99.90;;;;;;5010642;28;20547;-56
2020/12/31 06:35:07;;;;;;;20.58;7.95;;;3.30;99.90;;;;;;5010635;28;20061;-54
2020/12/31 06:37:33;;;;;;;20.40;8.48;;;3.30;99.90;;;;;;5010203;28;20029;-53
2020/12/31 06:40:20;;;;;;;19.73;8.23;;;3.30;99.90;;;;;;5010368;28;20033;-55
2020/12/31 06:43:02;;;;;;;19.85;7.72;;;3.30;99.90;;;;;;4996922;28;20057;-54
2020/12/31 06:48:27;;;;;;;20.48;8.55;;;3.20;99.90;;;;;;5071058;28;20136;-64
2020/12/31 06:50:57;;;;;;;19.40;7.68;;;3.20;99.90;;;;;;5015897;28;20438;-64
2020/12/31 06:53:33;;;;;;;21.58;8.65;;;3.20;99.90;;;;;;5033744;28;20477;-64
2020/12/31 06:56:02;;;;;;;20.55;7.63;;;3.20;99.90;;;;;;5037627;28;20098;-64
2020/12/31 06:58:29;;;;;;;20.75;8.25;;;3.20;99.90;;;;;;5053099;28;20028;-63
2020/12/31 07:00:55;;;;;;;20.92;8.77;;;3.20;99.90;;;;;;5035459;28;20094;-61
2020/12/31 07:03:39;;;;;;;20.90;8.60;;;3.20;99.90;;;;;;5035481;28;20055;-63
2020/12/31 07:06:23;;;;;;;21.27;8.98;;;3.20;99.90;;;;;;5035125;28;20318;-64
2020/12/31 07:08:59;;;;;;;21.50;8.52;;;3.20;99.90;;;;;;5034641;28;20029;-64
2020/12/31 07:11:39;;;;;;;21.35;8.25;;;3.10;99.90;;;;;;5067862;28;20024;-65
2020/12/31 07:14:16;;;;;;;20.70;8.25;;;3.10;99.90;;;;;;5072402;28;20016;-62
2020/12/31 07:16:48;;;;;;;21.15;8.60;;;3.10;99.90;;;;;;5053095;28;20074;-62
2020/12/31 07:19:14;;;;;;;19.48;7.57;;;3.10;99.90;;;;;;5052351;28;20033;-62
2020/12/31 07:21:40;;;;;;;20.55;8.60;;;3.10;99.90;;;;;;5043787;28;20469;-63
2020/12/31 07:24:27;;;;;;;20.67;8.43;;;3.10;99.90;;;;;;5027064;28;20396;-64
2020/12/31 07:26:59;;;;;;;19.98;7.68;;;3.10;99.90;;;;;;5025323;28;20095;-65
2020/12/31 07:29:34;;;;;;;21.45;9.07;;;3.10;99.90;;;;;;5032178;28;20033;-64
2020/12/31 07:32:02;;;;;;;20.48;8.52;;;3.10;99.90;;;;;;5049147;28;20404;-63
2020/12/31 07:34:29;;;;;;;23.92;9.68;;;3.00;99.90;;;;;;5034751;28;20017;-63
2020/12/31 07:36:58;;;;;;;20.38;9.05;;;3.00;99.90;;;;;;5047500;28;20396;-63
2020/12/31 07:39:24;;;;;;;22.65;9.52;;;3.10;99.90;;;;;;5064498;28;20129;-58
2020/12/31 07:41:50;;;;;;;23.98;9.13;;;3.10;99.90;;;;;;5041299;28;20031;-64
2020/12/31 07:44:16;;;;;;;21.23;8.82;;;3.10;99.90;;;;;;5053714;28;20400;-64
2020/12/31 07:46:43;;;;;;;21.48;8.98;;;3.10;99.90;;;;;;5052356;28;20514;-64
2020/12/31 07:49:12;;;;;;;20.45;8.20;;;3.10;99.90;;;;;;5046063;28;20021;-64
2020/12/31 07:51:45;;;;;;;21.75;8.93;;;3.10;99.90;;;;;;5063302;28;20027;-64
2020/12/31 07:54:10;;;;;;;22.90;9.30;;;3.10;99.90;;;;;;5040994;28;20075;-63
2020/12/31 07:56:37;;;;;;;21.42;8.90;;;3.10;99.90;;;;;;5052177;28;20124;-61
2020/12/31 07:59:04;;;;;;;22.25;9.25;;;3.20;99.90;;;;;;5017263;28;20031;-64
2020/12/31 08:01:30;;;;;;;20.35;9.27;;;3.10;99.90;;;;;;5053152;28;20029;-64
2020/12/31 08:04:09;;;;;;;22.45;9.88;;;3.10;99.90;;;;;;5054179;28;20030;-65
2020/12/31 08:06:35;;;;;;;20.80;8.68;;;3.10;99.90;;;;;;5055667;28;20059;-62
2020/12/31 08:09:00;;;;;;;22.20;8.95;;;3.10;99.90;;;;;;5051409;28;20441;-61
2020/12/31 08:11:26;;;;;;;24.95;10.02;;;3.10;99.90;;;;;;5054660;28;20118;-61
2020/12/31 08:14:04;;;;;;;31.88;12.30;;;3.10;99.90;;;;;;5044621;28;20515;-63
2020/12/31 08:16:30;;;;;;;23.08;10.52;;;3.00;99.90;;;;;;5066157;28;20508;-64
2020/12/31 08:18:57;;;;;;;24.08;10.93;;;3.00;99.90;;;;;;5033742;28;20052;-60
2020/12/31 08:21:24;;;;;;;24.92;11.10;;;3.00;99.90;;;;;;5055611;28;20036;-62
2020/12/31 08:24:02;;;;;;;24.50;11.80;;;3.00;99.90;;;;;;5064508;28;20451;-64
2020/12/31 08:26:33;;;;;;;24.35;11.35;;;3.00;99.90;;;;;;5051648;28;20640;-64
2020/12/31 08:29:00;;;;;;;23.38;11.05;;;3.00;99.90;;;;;;5051467;28;20057;-64
2020/12/31 08:31:28;;;;;;;26.20;11.40;;;3.10;99.90;;;;;;5058266;28;20554;-64
2020/12/31 08:34:04;;;;;;;27.42;12.45;;;3.00;99.90;;;;;;5070624;28;20115;-63
2020/12/31 08:36:29;;;;;;;24.65;12.18;;;3.10;99.90;;;;;;5057396;28;20397;-64
2020/12/31 08:38:58;;;;;;;23.45;11.02;;;3.10;99.90;;;;;;5050829;28;20028;-63
2020/12/31 08:41:24;;;;;;;26.40;11.55;;;3.00;99.90;;;;;;5070883;28;20031;-61
2020/12/31 08:43:52;;;;;;;25.00;12.27;;;3.10;99.90;;;;;;5053261;28;20017;-64
2020/12/31 08:46:22;;;;;;;;;;;3.10;99.90;;;;;;5036002;28;20040;-65
2020/12/31 08:49:04;;;;;;;23.60;10.98;;;3.10;99.90;;;;;;5071701;28;20146;-64
2020/12/31 08:51:30;;;;;;;23.10;10.98;;;3.10;99.90;;;;;;5036027;28;20021;-64
2020/12/31 08:53:58;;;;;;;25.02;11.32;;;3.10;99.90;;;;;;5068744;28;20078;-63
2020/12/31 08:56:27;;;;;;;25.73;12.50;;;3.20;99.90;;;;;;5041278;28;20512;-63
2020/12/31 08:59:12;;;;;;;22.33;9.45;;;3.10;99.90;;;;;;5050269;28;20646;-63
2020/12/31 09:01:43;;;;;;;22.48;10.20;;;3.10;99.90;;;;;;5051005;28;20064;-63
2020/12/31 09:04:19;;;;;;;25.75;10.13;;;3.20;99.90;;;;;;5050874;28;20051;-62
2020/12/31 09:06:46;;;;;;;22.05;10.70;;;3.20;99.90;;;;;;5050748;28;20108;-64
2020/12/31 09:09:20;;;;;;;22.13;11.02;;;3.30;99.90;;;;;;5049477;28;20021;-64
2020/12/31 09:11:58;;;;;;;24.10;11.25;;;3.20;99.90;;;;;;5053190;28;20083;-63
2020/12/31 09:14:24;;;;;;;24.67;11.93;;;3.20;99.90;;;;;;5047335;28;20162;-63
2020/12/31 09:16:50;;;;;;;24.23;11.60;;;3.20;99.90;;;;;;5058061;28;20036;-65
2020/12/31 09:19:16;;;;;;;22.98;10.68;;;3.30;99.90;;;;;;5069828;28;20112;-63
2020/12/31 09:21:42;;;;;;;25.27;11.25;;;3.30;99.90;;;;;;5063313;28;20039;-63
2020/12/31 09:24:21;;;;;;;24.15;10.93;;;3.30;99.90;;;;;;5053852;28;20027;-64
2020/12/31 09:26:56;;;;;;;23.10;10.52;;;3.40;99.90;;;;;;5057627;28;20109;-62
2020/12/31 09:29:23;;;;;;;23.23;10.20;;;3.40;99.90;;;;;;5058673;28;20070;-61
2020/12/31 09:31:49;;;;;;;22.83;11.30;;;3.50;99.90;;;;;;5055972;28;20031;-62
2020/12/31 09:34:15;;;;;;;22.85;10.50;;;3.40;99.90;;;;;;5060114;28;20020;-63
2020/12/31 09:36:41;;;;;;;23.27;9.93;;;3.50;99.90;;;;;;5021040;28;20481;-60
2020/12/31 09:39:07;;;;;;;22.13;10.18;;;3.40;99.90;;;;;;5012106;28;20033;-63
2020/12/31 09:41:33;;;;;;;20.67;9.00;;;3.50;99.90;;;;;;5030574;28;20049;-64
2020/12/31 09:43:59;;;;;;;20.45;9.90;;;3.50;99.90;;;;;;5012329;28;20026;-59
2020/12/31 09:46:25;;;;;;;22.42;10.60;;;3.50;99.90;;;;;;5012639;28;20098;-63
2020/12/31 09:48:51;;;;;;;20.88;8.82;;;3.50;99.90;;;;;;5030079;28;20026;-62
2020/12/31 09:51:17;;;;;;;21.60;9.38;;;3.60;99.90;;;;;;5030305;28;20032;-63
2020/12/31 09:53:43;;;;;;;17.83;7.85;;;3.60;99.90;;;;;;5012763;28;20029;-63
2020/12/31 09:56:09;;;;;;;19.25;7.95;;;3.60;99.90;;;;;;5030291;28;20026;-62
2020/12/31 09:58:35;;;;;;;19.33;7.75;;;3.70;99.90;;;;;;5029770;28;20488;-54
2020/12/31 10:01:02;;;;;;;18.92;7.25;;;3.80;99.90;;;;;;5012677;28;20026;-59
2020/12/31 10:03:28;;;;;;;17.57;7.53;;;3.80;99.90;;;;;;5030297;28;20397;-66
2020/12/31 10:05:54;;;;;;;17.25;7.18;;;3.80;99.90;;;;;;5030082;28;20037;-64
2020/12/31 10:08:20;;;;;;;16.90;6.13;;;3.80;99.90;;;;;;5029733;28;20025;-64
2020/12/31 10:10:45;;;;;;;15.43;6.22;;;3.80;99.90;;;;;;5012113;28;20021;-64
2020/12/31 10:13:11;;;;;;;18.45;6.20;;;3.80;99.90;;;;;;5030357;28;20017;-61
2020/12/31 10:15:37;;;;;;;16.65;5.40;;;3.70;99.90;;;;;;5030209;28;20025;-60
2020/12/31 10:18:02;;;;;;;16.85;5.72;;;3.80;99.90;;;;;;5029673;28;20032;-64
2020/12/31 10:20:28;;;;;;;15.13;5.82;;;3.80;99.90;;;;;;5013995;28;20120;-63
2020/12/31 10:22:54;;;;;;;15.35;5.68;;;3.80;99.90;;;;;;5034406;28;20089;-64
2020/12/31 10:25:20;;;;;;;15.88;5.32;;;3.80;99.90;;;;;;5034794;28;20484;-64
2020/12/31 10:27:46;;;;;;;16.77;5.82;;;3.80;99.90;;;;;;5053622;28;20029;-63
2020/12/31 10:30:11;;;;;;;16.33;5.80;;;3.80;99.90;;;;;;5053554;28;20079;-64
2020/12/31 10:32:37;;;;;;;15.00;5.85;;;3.80;99.90;;;;;;5053820;28;20048;-64
2020/12/31 10:35:03;;;;;;;15.43;5.40;;;3.90;99.90;;;;;;5053792;28;20104;-60
2020/12/31 10:37:29;;;;;;;19.08;5.75;;;4.10;99.90;;;;;;5035818;28;20021;-61
2020/12/31 10:39:55;;;;;;;17.05;6.38;;;4.10;99.90;;;;;;5053006;28;20100;-61
2020/12/31 10:42:20;;;;;;;14.88;5.85;;;4.20;99.90;;;;;;5035685;28;20025;-59
2020/12/31 10:44:46;;;;;;;17.25;5.50;;;4.40;99.90;;;;;;5035644;28;20460;-58
2020/12/31 10:47:11;;;;;;;15.90;6.25;;;4.50;99.90;;;;;;5048491;28;20032;-61
2020/12/31 10:49:37;;;;;;;15.10;5.20;;;4.40;99.90;;;;;;5052028;28;20022;-56
2020/12/31 10:52:03;;;;;;;17.10;5.75;;;4.30;99.90;;;;;;5053158;28;20060;-61
2020/12/31 10:54:29;;;;;;;15.70;5.20;;;4.30;99.90;;;;;;5053298;28;20087;-54
2020/12/31 10:56:56;;;;;;;14.95;5.40;;;4.50;99.90;;;;;;5035387;28;20029;-57
2020/12/31 10:59:22;;;;;;;16.27;5.45;;;4.50;99.90;;;;;;5052792;28;20075;-61
2020/12/31 11:01:57;;;;;;;18.70;5.65;;;4.50;99.90;;;;;;5053329;28;20025;-61
2020/12/31 11:04:22;;;;;;;14.10;4.93;;;4.40;99.90;;;;;;5035242;28;20025;-55
2020/12/31 11:06:48;;;;;;;14.90;5.30;;;4.30;99.90;;;;;;5052924;28;20503;-61
2020/12/31 11:09:14;;;;;;;15.15;6.22;;;4.40;99.90;;;;;;5033548;28;20076;-62
2020/12/31 11:11:41;;;;;;;16.02;5.18;;;4.50;99.90;;;;;;5052705;28;20070;-57
2020/12/31 11:14:07;;;;;;;15.98;5.78;;;4.50;99.90;;;;;;5051287;28;20017;-61
2020/12/31 11:16:33;;;;;;;16.77;5.88;;;4.70;99.90;;;;;;5053145;28;20021;-60
2020/12/31 11:18:58;;;;;;;15.85;6.72;;;4.70;99.90;;;;;;5034295;28;20025;-62
2020/12/31 11:21:25;;;;;;;15.27;5.97;;;4.70;99.90;;;;;;5052649;28;20173;-61
2020/12/31 11:23:50;;;;;;;14.73;5.30;;;4.80;99.90;;;;;;5052352;28;20052;-61
2020/12/31 11:26:18;;;;;;;15.55;5.70;;;4.70;99.90;;;;;;5018108;28;20465;-60
2020/12/31 11:28:45;;;;;;;15.27;5.60;;;4.60;99.90;;;;;;5052050;28;20021;-61
2020/12/31 11:31:12;;;;;;;16.50;6.13;;;4.50;99.90;;;;;;5051758;28;20048;-55
2020/12/31 11:33:38;;;;;;;16.27;5.75;;;4.70;99.90;;;;;;5034813;28;20268;-60
2020/12/31 11:36:05;;;;;;;14.43;5.50;;;4.70;99.90;;;;;;5052564;28;20021;-58
2020/12/31 11:38:31;;;;;;;15.43;5.80;;;4.80;99.90;;;;;;5034213;28;20068;-60
2020/12/31 11:40:56;;;;;;;14.38;5.43;;;4.70;99.90;;;;;;5034526;28;20439;-61
2020/12/31 11:43:26;;;;;;;15.00;5.68;;;4.80;99.90;;;;;;5052544;28;20051;-61
2020/12/31 11:45:51;;;;;;;16.08;6.00;;;4.80;99.90;;;;;;5034031;28;20086;-55
2020/12/31 11:48:17;;;;;;;17.30;6.22;;;4.80;99.90;;;;;;5052021;28;20037;-60
2020/12/31 11:50:42;;;;;;;16.30;6.30;;;4.80;99.90;;;;;;5052275;28;20100;-59
2020/12/31 11:53:08;;;;;;;15.77;6.13;;;4.80;99.90;;;;;;5052450;28;20113;-57
2020/12/31 11:55:36;;;;;;;15.35;5.82;;;4.60;99.90;;;;;;5034049;28;20029;-61
2020/12/31 11:58:02;;;;;;;18.88;6.15;;;4.70;99.90;;;;;;5034126;28;20036;-63
2020/12/31 12:00:27;;;;;;;15.55;5.72;;;4.60;99.90;;;;;;5033685;28;20036;-61
2020/12/31 12:02:53;;;;;;;15.98;5.75;;;4.60;99.90;;;;;;5052217;28;20517;-58
2020/12/31 12:05:18;;;;;;;16.42;6.47;;;4.60;99.90;;;;;;5052179;28;20041;-59
2020/12/31 12:07:45;;;;;;;14.95;5.20;;;4.50;99.90;;;;;;5051101;28;20052;-58
2020/12/31 12:10:12;;;;;;;15.82;5.90;;;4.60;99.90;;;;;;5050310;28;20040;-59
2020/12/31 12:12:38;;;;;;;15.98;6.28;;;4.50;99.90;;;;;;5050346;28;20051;-57
2020/12/31 12:15:04;;;;;;;15.75;5.88;;;4.40;99.90;;;;;;5049157;28;20114;-60
2020/12/31 12:17:30;;;;;;;17.58;7.10;;;4.50;99.90;;;;;;5032505;28;20508;-58
2020/12/31 12:19:55;;;;;;;16.55;5.85;;;4.50;99.90;;;;;;5050969;28;20029;-57
2020/12/31 12:22:21;;;;;;;17.30;6.20;;;4.50;99.90;;;;;;5052456;28;20520;-57
2020/12/31 12:24:46;;;;;;;14.35;5.63;;;4.50;99.90;;;;;;5033813;28;20084;-57
2020/12/31 12:27:12;;;;;;;17.02;5.97;;;4.50;99.90;;;;;;5051274;28;20079;-61
2020/12/31 12:29:38;;;;;;;15.60;5.90;;;4.50;99.90;;;;;;5050702;28;20514;-60
2020/12/31 12:32:10;;;;;;;16.02;5.70;;;4.50;99.90;;;;;;5051294;28;20503;-59
2020/12/31 12:34:36;;;;;;;16.33;6.00;;;4.50;99.90;;;;;;5053189;28;20432;-56
2020/12/31 12:37:01;;;;;;;16.88;6.72;;;4.50;99.90;;;;;;5052397;28;20041;-57
2020/12/31 12:39:27;;;;;;;15.82;6.10;;;4.40;99.90;;;;;;5045559;28;20119;-55
2020/12/31 12:41:52;;;;;;;15.52;5.60;;;4.40;99.90;;;;;;5052290;28;20160;-59
2020/12/31 12:44:19;;;;;;;18.55;7.15;;;4.40;99.90;;;;;;5052681;28;20048;-56
2020/12/31 12:46:45;;;;;;;16.63;6.18;;;4.40;99.90;;;;;;5085825;22;20070;-55
2020/12/31 12:49:10;;;;;;;14.57;5.25;;;4.40;99.90;;;;;;5091848;28;20043;-54
2020/12/31 12:51:36;;;;;;;15.10;5.78;;;4.30;99.90;;;;;;5091269;28;20024;-54
2020/12/31 12:54:06;;;;;;;20.70;9.27;;;4.20;99.90;;;;;;5077000;28;20047;-53